Time;durP1;ratioP1;P1;durP2;ratioP2;P2;SDS_P1;SDS_P2;PMS_P1;PMS_P2;Temp;Humidity;BMP_temperature;BMP_pressure;BME280_temperature;BME280_humidity;BME280_pressure;Samples;Min_cycle;Max_cycle;Signal;HPM_P1;HPM_P2
2022/10/06 00:00:27;;;;;;;3.63;1.95;;;;;;;;;;4969252;28;20070;-79
2022/10/06 00:02:53;;;;;;;3.13;1.90;;;;;;;;;;4979370;28;20489;-79
2022/10/06 00:05:18;;;;;;;3.88;1.90;;;;;;;;;;4977694;28;20351;-79
2022/10/06 00:07:44;;;;;;;3.30;2.00;;;;;;;;;;4969042;28;20092;-80
2022/10/06 00:10:09;;;;;;;3.72;2.28;;;;;;;;;;4969044;28;20050;-79
2022/10/06 00:12:39;;;;;;;4.00;2.17;;;;;;;;;;4969474;28;20064;-79
2022/10/06 00:15:05;;;;;;;4.70;2.30;;;;;;;;;;4972650;28;20094;-79
2022/10/06 00:17:31;;;;;;;3.85;2.15;;;;;;;;;;4974434;28;20038;-79
2022/10/06 00:19:56;;;;;;;3.45;1.98;;;;;;;;;;4968826;28;20545;-78
2022/10/06 00:22:21;;;;;;;3.65;2.13;;;;;;;;;;4969434;28;20038;-79
2022/10/06 00:24:47;;;;;;;3.65;2.13;;;;;;;;;;4959458;28;20371;-80
2022/10/06 00:27:13;;;;;;;3.75;2.22;;;;;;;;;;4968353;28;20039;-79
2022/10/06 00:29:41;;;;;;;4.10;2.20;;;;;;;;;;4960950;28;20129;-79
2022/10/06 00:32:08;;;;;;;4.07;2.45;;;;;;;;;;4969179;28;20034;-80
2022/10/06 00:34:35;;;;;;;3.78;2.00;;;;;;;;;;4960818;28;20057;-79
2022/10/06 00:37:00;;;;;;;3.55;2.20;;;;;;;;;;4973244;28;20038;-80
2022/10/06 00:39:28;;;;;;;3.42;2.05;;;;;;;;;;4975927;28;20037;-79
2022/10/06 00:41:54;;;;;;;4.28;2.10;;;;;;;;;;4958525;28;20046;-79
2022/10/06 00:44:19;;;;;;;3.60;2.15;;;;;;;;;;4967581;28;20699;-79
2022/10/06 00:46:47;;;;;;;3.85;2.13;;;;;;;;;;4966300;28;20370;-79
2022/10/06 00:49:21;;;;;;;4.15;2.30;;;;;;;;;;4969734;28;20713;-82
2022/10/06 00:52:07;;;;;;;6.38;2.28;;;;;;;;;;4960586;28;20042;-82
2022/10/06 00:54:34;;;;;;;3.53;2.20;;;;;;;;;;4958049;28;20113;-82
2022/10/06 00:57:04;;;;;;;3.78;2.08;;;;;;;;;;4974513;28;20042;-82
2022/10/06 00:59:29;;;;;;;3.67;2.22;;;;;;;;;;4975014;28;20053;-82
2022/10/06 01:02:10;;;;;;;3.55;2.10;;;;;;;;;;4965072;28;20039;-82
2022/10/06 01:04:37;;;;;;;5.18;2.40;;;;;;;;;;4962199;28;20039;-82
2022/10/06 01:07:03;;;;;;;4.00;2.10;;;;;;;;;;4980996;28;20078;-82
2022/10/06 01:09:29;;;;;;;3.70;2.33;;;;;;;;;;4971690;28;20038;-82
2022/10/06 01:11:58;;;;;;;3.67;2.08;;;;;;;;;;4956220;28;20054;-82
2022/10/06 01:14:25;;;;;;;3.22;1.90;;;;;;;;;;4981815;28;20031;-82
2022/10/06 01:16:55;;;;;;;3.42;2.10;;;;;;;;;;4986980;28;20304;-82
2022/10/06 01:19:53;;;;;;;3.97;2.05;;;;;;;;;;4966828;28;20038;-81
2022/10/06 01:22:29;;;;;;;4.05;2.28;;;;;;;;;;4975662;28;20038;-82
2022/10/06 01:24:55;;;;;;;5.35;2.03;;;;;;;;;;4976351;28;20042;-82
2022/10/06 01:27:22;;;;;;;3.28;2.08;;;;;;;;;;4981346;28;20085;-81
2022/10/06 01:29:51;;;;;;;3.45;1.83;;;;;;;;;;4972221;28;20034;-82
2022/10/06 01:32:17;;;;;;;4.50;2.05;;;;;;;;;;4960432;28;20494;-82
2022/10/06 01:34:42;;;;;;;3.92;1.90;;;;;;;;;;4973326;28;20041;-82
2022/10/06 01:37:07;;;;;;;2.90;1.77;;;;;;;;;;4973226;28;20069;-82
2022/10/06 01:39:33;;;;;;;3.60;2.10;;;;;;;;;;4973272;28;20088;-82
2022/10/06 01:42:02;;;;;;;4.60;2.10;;;;;;;;;;4965024;28;20078;-82
2022/10/06 01:44:27;;;;;;;4.82;2.05;;;;;;;;;;4972524;28;20093;-82
2022/10/06 01:46:52;;;;;;;4.03;2.08;;;;;;;;;;4969686;28;20032;-83
2022/10/06 01:49:18;;;;;;;3.35;1.80;;;;;;;;;;4961378;28;20588;-82
2022/10/06 01:51:45;;;;;;;4.13;2.35;;;;;;;;;;4972164;28;20061;-82
2022/10/06 01:54:10;;;;;;;3.67;1.90;;;;;;;;;;4960590;28;20035;-82
2022/10/06 01:56:35;;;;;;;3.30;1.90;;;;;;;;;;4960091;28;20045;-83
2022/10/06 01:59:01;;;;;;;3.67;2.10;;;;;;;;;;4966973;28;20038;-82
2022/10/06 02:01:28;;;;;;;2.92;1.75;;;;;;;;;;4954454;28;20054;-82
2022/10/06 02:03:57;;;;;;;2.97;1.73;;;;;;;;;;4970996;28;20043;-82
2022/10/06 02:06:22;;;;;;;3.97;2.20;;;;;;;;;;4964875;28;20073;-82
2022/10/06 02:08:48;;;;;;;3.22;1.80;;;;;;;;;;4956048;28;20573;-82
2022/10/06 02:11:13;;;;;;;3.35;2.00;;;;;;;;;;4965026;28;20038;-81
2022/10/06 02:13:38;;;;;;;6.68;2.25;;;;;;;;;;4970634;28;20093;-82
2022/10/06 02:16:05;;;;;;;4.85;2.10;;;;;;;;;;4973979;28;20042;-82
2022/10/06 02:18:32;;;;;;;4.03;2.20;;;;;;;;;;4970447;28;20559;-82
2022/10/06 02:20:58;;;;;;;3.15;1.90;;;;;;;;;;4959784;28;20482;-82
2022/10/06 02:23:24;;;;;;;3.80;2.22;;;;;;;;;;4966620;28;20042;-82
2022/10/06 02:25:57;;;;;;;4.57;2.00;;;;;;;;;;4960074;28;20086;-82
2022/10/06 02:28:25;;;;;;;3.78;2.08;;;;;;;;;;4980769;28;20050;-82
2022/10/06 02:30:50;;;;;;;3.83;2.17;;;;;;;;;;4965084;28;20047;-82
2022/10/06 02:33:18;;;;;;;3.58;2.30;;;;;;;;;;4953661;28;20543;-82
2022/10/06 02:35:44;;;;;;;4.65;2.47;;;;;;;;;;4966937;28;20038;-82
2022/10/06 02:38:09;;;;;;;4.65;2.28;;;;;;;;;;4967233;28;20485;-81
2022/10/06 02:40:34;;;;;;;3.40;2.13;;;;;;;;;;4972032;28;20779;-82
2022/10/06 02:43:00;;;;;;;4.03;2.42;;;;;;;;;;4965334;28;20364;-83
2022/10/06 02:45:25;;;;;;;5.60;2.38;;;;;;;;;;4972136;28;20066;-82
2022/10/06 02:47:53;;;;;;;3.63;2.30;;;;;;;;;;4971241;28;20050;-82
2022/10/06 02:50:18;;;;;;;4.07;2.50;;;;;;;;;;4976328;28;20109;-82
2022/10/06 02:52:44;;;;;;;3.63;2.30;;;;;;;;;;4974427;28;20030;-82
2022/10/06 02:55:10;;;;;;;3.97;2.33;;;;;;;;;;4975086;28;20074;-83
2022/10/06 02:57:39;;;;;;;3.83;2.42;;;;;;;;;;4987074;28;21120;-82
2022/10/06 03:00:08;;;;;;;4.50;2.70;;;;;;;;;;4972967;28;20035;-82
2022/10/06 03:02:34;;;;;;;3.90;2.13;;;;;;;;;;4972474;28;20038;-83
2022/10/06 03:04:59;;;;;;;4.53;2.28;;;;;;;;;;4966410;28;20062;-83
2022/10/06 03:07:27;;;;;;;4.72;2.78;;;;;;;;;;4956253;28;20035;-82
2022/10/06 03:09:52;;;;;;;4.18;2.60;;;;;;;;;;4972004;28;20046;-82
2022/10/06 03:12:21;;;;;;;4.22;2.35;;;;;;;;;;4966270;28;20517;-82
2022/10/06 03:14:47;;;;;;;3.97;2.38;;;;;;;;;;4975713;28;20126;-82
2022/10/06 03:17:13;;;;;;;3.85;2.25;;;;;;;;;;4976801;28;20113;-83
2022/10/06 03:19:38;;;;;;;4.28;2.13;;;;;;;;;;4967091;28;20778;-83
2022/10/06 03:22:04;;;;;;;6.22;2.30;;;;;;;;;;4980609;28;20039;-83
2022/10/06 03:24:30;;;;;;;4.45;2.30;;;;;;;;;;4957981;28;20043;-82
2022/10/06 03:26:58;;;;;;;4.55;2.00;;;;;;;;;;4953870;28;20492;-83
2022/10/06 03:29:23;;;;;;;5.35;2.25;;;;;;;;;;4955301;28;20038;-82
2022/10/06 03:31:48;;;;;;;6.05;2.17;;;;;;;;;;4942210;28;20039;-83
2022/10/06 03:34:17;;;;;;;4.30;2.35;;;;;;;;;;4944576;28;20035;-82
2022/10/06 03:36:43;;;;;;;4.45;2.30;;;;;;;;;;4942954;28;20058;-82
2022/10/06 03:39:08;;;;;;;4.25;2.40;;;;;;;;;;4941849;28;20043;-82
2022/10/06 03:41:36;;;;;;;3.92;2.20;;;;;;;;;;4955494;28;20418;-82
2022/10/06 03:44:01;;;;;;;3.17;1.85;;;;;;;;;;4959213;28;20115;-82
2022/10/06 03:46:32;;;;;;;3.60;2.00;;;;;;;;;;4943968;28;20189;-81
2022/10/06 03:48:59;;;;;;;3.75;2.10;;;;;;;;;;4956063;28;20406;-82
2022/10/06 03:51:30;;;;;;;3.60;2.08;;;;;;;;;;4936394;28;20050;-83
2022/10/06 03:53:56;;;;;;;3.58;2.13;;;;;;;;;;4942290;28;20118;-81
2022/10/06 03:56:28;;;;;;;4.13;2.13;;;;;;;;;;4947508;28;20038;-82
2022/10/06 03:58:56;;;;;;;3.25;1.85;;;;;;;;;;4957315;28;20506;-82
2022/10/06 04:01:26;;;;;;;3.95;2.20;;;;;;;;;;4956067;28;20042;-82
2022/10/06 04:03:54;;;;;;;3.40;2.10;;;;;;;;;;4953270;28;20474;-81
2022/10/06 04:06:19;;;;;;;4.03;2.17;;;;;;;;;;4945661;28;20053;-81
2022/10/06 04:08:47;;;;;;;3.50;1.90;;;;;;;;;;4946416;28;20039;-81
2022/10/06 04:11:15;;;;;;;3.63;2.00;;;;;;;;;;4945780;28;20035;-81
2022/10/06 04:13:42;;;;;;;4.57;2.05;;;;;;;;;;4954330;28;20038;-80
2022/10/06 04:16:22;;;;;;;3.35;1.60;;;;;;;;;;4956657;28;20077;-82
2022/10/06 04:18:50;;;;;;;3.15;1.52;;;;;;;;;;4978298;28;20035;-80
2022/10/06 04:21:16;;;;;;;2.80;1.50;;;;;;;;;;4971107;28;20600;-81
2022/10/06 04:23:41;;;;;;;3.45;1.45;;;;;;;;;;4956116;28;20100;-83
2022/10/06 04:26:11;;;;;;;3.08;1.33;;;;;;;;;;4971400;28;20038;-84
2022/10/06 04:28:37;;;;;;;2.03;1.00;;;;;;;;;;4961180;28;20083;-83
2022/10/06 04:31:10;;;;;;;1.90;0.90;;;;;;;;;;4957322;28;20041;-83
2022/10/06 04:33:36;;;;;;;2.35;0.93;;;;;;;;;;4949713;28;20036;-83
2022/10/06 04:36:03;;;;;;;1.70;0.90;;;;;;;;;;4956955;28;20031;-83
2022/10/06 04:38:32;;;;;;;1.67;0.70;;;;;;;;;;4950678;28;20054;-83
2022/10/06 04:41:09;;;;;;;2.08;0.90;;;;;;;;;;4959245;28;20129;-81
2022/10/06 04:43:35;;;;;;;1.70;0.77;;;;;;;;;;4958013;28;20432;-81
2022/10/06 04:46:01;;;;;;;1.70;0.75;;;;;;;;;;4940704;28;20074;-81
2022/10/06 04:48:27;;;;;;;1.50;0.60;;;;;;;;;;4972997;28;20085;-81
2022/10/06 04:50:58;;;;;;;1.95;0.70;;;;;;;;;;4969669;28;20534;-81
2022/10/06 04:53:23;;;;;;;1.88;0.60;;;;;;;;;;4963056;28;20035;-80
2022/10/06 04:56:05;;;;;;;2.10;0.60;;;;;;;;;;4937358;28;20063;-81
2022/10/06 04:58:35;;;;;;;1.58;0.57;;;;;;;;;;4956680;28;20047;-80
2022/10/06 05:01:01;;;;;;;1.88;0.60;;;;;;;;;;4944950;28;20054;-81
2022/10/06 05:03:28;;;;;;;1.15;0.50;;;;;;;;;;4937119;28;20042;-81
2022/10/06 05:06:15;;;;;;;2.50;0.80;;;;;;;;;;4942115;28;20181;-80
2022/10/06 05:08:41;;;;;;;1.42;0.60;;;;;;;;;;4973210;28;20482;-81
2022/10/06 05:11:09;;;;;;;1.58;0.70;;;;;;;;;;4973333;28;20031;-81
2022/10/06 05:13:37;;;;;;;1.85;0.63;;;;;;;;;;4965548;28;20034;-81
2022/10/06 05:16:05;;;;;;;1.10;0.50;;;;;;;;;;4960139;28;20143;-81
2022/10/06 05:18:31;;;;;;;2.33;0.85;;;;;;;;;;4974394;28;20042;-80
2022/10/06 05:20:58;;;;;;;1.67;0.50;;;;;;;;;;4975222;28;20540;-81
2022/10/06 05:23:25;;;;;;;0.93;0.30;;;;;;;;;;4965138;28;20540;-81
2022/10/06 05:25:55;;;;;;;0.77;0.40;;;;;;;;;;4964773;28;20031;-84
2022/10/06 05:28:22;;;;;;;0.93;0.40;;;;;;;;;;4980552;28;20034;-82
2022/10/06 05:31:04;;;;;;;1.42;0.50;;;;;;;;;;4970614;28;20716;-84
2022/10/06 05:33:32;;;;;;;1.50;0.35;;;;;;;;;;4957994;28;20031;-82
2022/10/06 05:36:05;;;;;;;1.33;0.43;;;;;;;;;;4960062;28;20038;-83
2022/10/06 05:38:33;;;;;;;0.80;0.30;;;;;;;;;;4972987;28;20034;-83
2022/10/06 05:41:03;;;;;;;1.20;0.52;;;;;;;;;;4962621;28;20501;-83
2022/10/06 05:43:29;;;;;;;0.93;0.32;;;;;;;;;;4966319;28;20498;-83
2022/10/06 05:45:56;;;;;;;2.25;0.32;;;;;;;;;;4964879;28;20050;-82
2022/10/06 05:48:22;;;;;;;0.93;0.20;;;;;;;;;;4958811;28;20031;-82
2022/10/06 05:50:48;;;;;;;1.02;0.30;;;;;;;;;;4959012;28;20502;-83
2022/10/06 05:53:14;;;;;;;1.05;0.30;;;;;;;;;;4965475;28;20489;-82
2022/10/06 05:55:40;;;;;;;1.52;0.35;;;;;;;;;;4962410;28;20506;-83
2022/10/06 05:58:05;;;;;;;0.60;0.40;;;;;;;;;;4958753;28;20041;-83
2022/10/06 06:00:31;;;;;;;1.77;0.45;;;;;;;;;;4961413;28;20482;-84
2022/10/06 06:02:56;;;;;;;1.27;0.35;;;;;;;;;;4975900;28;20655;-83
2022/10/06 06:05:22;;;;;;;0.98;0.30;;;;;;;;;;4961066;28;20053;-84
2022/10/06 06:07:47;;;;;;;1.92;0.40;;;;;;;;;;4961991;28;20087;-84
2022/10/06 06:10:12;;;;;;;0.63;0.20;;;;;;;;;;4962063;28;20639;-84
2022/10/06 06:12:39;;;;;;;0.45;0.20;;;;;;;;;;4966570;28;20125;-82
2022/10/06 06:17:49;;;;;;;1.35;0.40;;;;;;;;;;4972001;28;20544;-84
2022/10/06 06:20:14;;;;;;;1.42;0.40;;;;;;;;;;4973220;28;20066;-82
2022/10/06 06:22:40;;;;;;;1.38;0.43;;;;;;;;;;4959479;28;20385;-83
2022/10/06 06:25:06;;;;;;;2.20;0.40;;;;;;;;;;4974204;28;20695;-83
2022/10/06 06:27:31;;;;;;;0.85;0.30;;;;;;;;;;4965212;28;20173;-83
2022/10/06 06:29:59;;;;;;;1.00;0.20;;;;;;;;;;4974738;28;20035;-83
2022/10/06 06:32:26;;;;;;;1.13;0.30;;;;;;;;;;4970297;28;20345;-83
2022/10/06 06:34:51;;;;;;;2.00;0.70;;;;;;;;;;4966781;28;20050;-84
2022/10/06 06:37:19;;;;;;;0.90;0.30;;;;;;;;;;4974671;28;20856;-84
2022/10/06 06:39:45;;;;;;;2.60;0.65;;;;;;;;;;4974019;28;20744;-85
2022/10/06 06:42:10;;;;;;;1.15;0.35;;;;;;;;;;4972873;28;20041;-84
2022/10/06 06:44:35;;;;;;;1.70;0.40;;;;;;;;;;4966711;28;20117;-86
2022/10/06 06:47:01;;;;;;;1.92;0.50;;;;;;;;;;4974100;28;20514;-86
2022/10/06 06:49:26;;;;;;;1.02;0.40;;;;;;;;;;4966580;28;20097;-85
2022/10/06 06:52:00;;;;;;;1.70;0.30;;;;;;;;;;4963472;28;20037;-86
2022/10/06 06:54:26;;;;;;;3.47;0.95;;;;;;;;;;4970816;28;20442;-85
2022/10/06 06:56:54;;;;;;;1.08;0.40;;;;;;;;;;4972409;28;20065;-85
2022/10/06 06:59:19;;;;;;;2.28;0.40;;;;;;;;;;4963635;28;20038;-84
2022/10/06 07:01:46;;;;;;;0.47;0.20;;;;;;;;;;4972508;28;20041;-86
2022/10/06 07:04:13;;;;;;;2.55;0.45;;;;;;;;;;4958647;28;20057;-81
2022/10/06 07:06:39;;;;;;;1.55;0.50;;;;;;;;;;4968988;28;20078;-83
2022/10/06 07:09:05;;;;;;;1.13;0.50;;;;;;;;;;4979560;28;20049;-85
2022/10/06 07:11:35;;;;;;;0.85;0.38;;;;;;;;;;4966256;28;20034;-84
2022/10/06 07:14:06;;;;;;;2.33;0.40;;;;;;;;;;4979821;28;20059;-88
2022/10/06 07:25:05;;;;;;;1.63;0.50;;;;;;;;;;4979580;28;20268;-84
2022/10/06 07:27:32;;;;;;;2.53;0.60;;;;;;;;;;4960792;28;20200;-84
2022/10/06 07:29:57;;;;;;;1.23;0.50;;;;;;;;;;4958887;28;20054;-83
2022/10/06 07:32:24;;;;;;;2.55;0.38;;;;;;;;;;4941335;28;20049;-83
2022/10/06 07:34:50;;;;;;;1.67;0.60;;;;;;;;;;4943479;28;20371;-84
2022/10/06 07:37:17;;;;;;;3.10;0.60;;;;;;;;;;4956041;28;20045;-85
2022/10/06 07:39:43;;;;;;;1.25;0.32;;;;;;;;;;4942409;28;20476;-82
2022/10/06 07:42:11;;;;;;;3.08;0.50;;;;;;;;;;4950191;28;20034;-84
2022/10/06 07:44:37;;;;;;;1.10;0.40;;;;;;;;;;4942128;28;20526;-84
2022/10/06 07:47:04;;;;;;;1.63;0.38;;;;;;;;;;4949525;28;20035;-85
2022/10/06 07:49:29;;;;;;;2.80;0.45;;;;;;;;;;4942205;28;20478;-83
2022/10/06 07:51:55;;;;;;;4.03;0.60;;;;;;;;;;4958547;28;20182;-84
2022/10/06 07:54:21;;;;;;;1.20;0.40;;;;;;;;;;4950979;28;20031;-84
2022/10/06 07:56:47;;;;;;;1.33;0.40;;;;;;;;;;4970533;28;20034;-84
2022/10/06 07:59:12;;;;;;;1.60;0.40;;;;;;;;;;4982841;28;20258;-84
2022/10/06 08:01:43;;;;;;;1.17;0.35;;;;;;;;;;4979224;28;20394;-87
2022/10/06 08:04:09;;;;;;;1.48;0.35;;;;;;;;;;4951524;28;20034;-84
2022/10/06 08:06:34;;;;;;;1.83;0.50;;;;;;;;;;4941475;28;20049;-85
2022/10/06 08:08:59;;;;;;;1.95;0.30;;;;;;;;;;4953877;28;20063;-83
2022/10/06 08:11:27;;;;;;;1.40;0.40;;;;;;;;;;4960788;28;20034;-83
2022/10/06 08:13:52;;;;;;;1.55;0.60;;;;;;;;;;4984639;28;20117;-84
2022/10/06 08:16:20;;;;;;;2.10;0.30;;;;;;;;;;4974425;28;20161;-84
2022/10/06 08:18:53;;;;;;;1.27;0.50;;;;;;;;;;4961440;28;20034;-83
2022/10/06 08:21:21;;;;;;;1.67;0.40;;;;;;;;;;4977106;28;20042;-84
2022/10/06 08:23:50;;;;;;;2.15;0.50;;;;;;;;;;4959611;28;20035;-85
2022/10/06 08:26:17;;;;;;;1.92;0.50;;;;;;;;;;4974379;28;20030;-85
2022/10/06 08:28:44;;;;;;;1.50;0.40;;;;;;;;;;4976389;28;20035;-85
2022/10/06 08:31:10;;;;;;;2.15;0.55;;;;;;;;;;4974275;28;20041;-84
2022/10/06 08:33:41;;;;;;;1.70;0.40;;;;;;;;;;4949190;28;20039;-85
2022/10/06 08:36:08;;;;;;;1.52;0.43;;;;;;;;;;4956601;28;20035;-84
2022/10/06 08:38:37;;;;;;;4.05;0.60;;;;;;;;;;4946654;28;20539;-86
2022/10/06 08:41:24;;;;;;;1.88;0.50;;;;;;;;;;4958459;28;20126;-85
2022/10/06 08:43:55;;;;;;;2.42;0.40;;;;;;;;;;4989637;28;20461;-85
2022/10/06 08:46:21;;;;;;;1.50;0.40;;;;;;;;;;4973819;28;20027;-84
2022/10/06 08:48:47;;;;;;;3.17;0.52;;;;;;;;;;4975599;28;20043;-84
2022/10/06 08:51:18;;;;;;;3.35;0.80;;;;;;;;;;4979798;28;20042;-84
2022/10/06 08:53:53;;;;;;;4.13;0.70;;;;;;;;;;4969296;28;20529;-85
2022/10/06 08:56:21;;;;;;;1.25;0.30;;;;;;;;;;4973669;28;20034;-86
2022/10/06 08:58:57;;;;;;;;;;;;;;;;;;4977923;28;20042;-85
2022/10/06 09:01:25;;;;;;;3.63;0.77;;;;;;;;;;4991355;28;20324;-85
2022/10/06 09:03:53;;;;;;;4.07;0.52;;;;;;;;;;4960338;28;20183;-85
2022/10/06 09:06:28;;;;;;;3.05;0.50;;;;;;;;;;4949676;28;20490;-85
2022/10/06 09:08:57;;;;;;;2.35;0.52;;;;;;;;;;4954737;28;20178;-86
2022/10/06 09:11:39;;;;;;;2.42;0.88;;;;;;;;;;4947091;28;20050;-86
2022/10/06 09:14:19;;;;;;;3.60;0.57;;;;;;;;;;4954898;28;20134;-84
2022/10/06 09:16:49;;;;;;;3.15;0.80;;;;;;;;;;4961337;28;20035;-83
2022/10/06 09:19:35;;;;;;;3.33;0.68;;;;;;;;;;4964461;28;20200;-86
2022/10/06 09:22:03;;;;;;;3.75;0.68;;;;;;;;;;4978343;28;20111;-85
2022/10/06 09:24:30;;;;;;;;;;;;;;;;;;4970789;28;20058;-85
2022/10/06 09:26:59;;;;;;;1.43;0.40;;;;;;;;;;4987396;28;19950;-86
2022/10/06 09:29:28;;;;;;;2.35;0.60;;;;;;;;;;4949678;28;20048;-84
2022/10/06 09:31:53;;;;;;;2.03;0.57;;;;;;;;;;4947467;28;20446;-88
2022/10/06 09:34:34;;;;;;;4.55;0.98;;;;;;;;;;4953783;28;20035;-86
2022/10/06 09:37:03;;;;;;;2.75;0.47;;;;;;;;;;4975058;28;20042;-86
2022/10/06 09:39:35;;;;;;;3.38;0.60;;;;;;;;;;4971834;28;20061;-86
2022/10/06 09:42:03;;;;;;;2.63;0.57;;;;;;;;;;4958705;28;20541;-86
2022/10/06 09:45:24;;;;;;;3.20;0.60;;;;;;;;;;4984853;28;20030;-84
2022/10/06 09:47:49;;;;;;;5.15;0.90;;;;;;;;;;4966563;28;20071;-86
2022/10/06 09:50:20;;;;;;;2.63;0.60;;;;;;;;;;4962650;28;20494;-86
2022/10/06 09:52:48;;;;;;;3.08;0.63;;;;;;;;;;4976664;28;20042;-85
2022/10/06 09:55:16;;;;;;;1.45;0.30;;;;;;;;;;4971639;28;20066;-85
2022/10/06 09:57:49;;;;;;;2.45;0.63;;;;;;;;;;4952306;28;20035;-84
2022/10/06 10:00:35;;;;;;;3.63;0.68;;;;;;;;;;4947146;28;20494;-85
2022/10/06 10:03:07;;;;;;;1.27;0.35;;;;;;;;;;4941029;28;20109;-87
2022/10/06 10:05:35;;;;;;;2.17;0.40;;;;;;;;;;4946249;28;20039;-88
2022/10/06 10:08:08;;;;;;;4.20;0.70;;;;;;;;;;4944841;28;20490;-84
2022/10/06 10:10:37;;;;;;;1.92;0.50;;;;;;;;;;4939337;28;20453;-85
2022/10/06 10:13:23;;;;;;;3.80;0.80;;;;;;;;;;4954261;28;20101;-87
2022/10/06 10:15:59;;;;;;;1.95;0.80;;;;;;;;;;4971660;28;20046;-84
2022/10/06 10:18:27;;;;;;;1.33;0.40;;;;;;;;;;4947250;28;20073;-84
2022/10/06 10:20:57;;;;;;;;;;;;;;;;;;4939492;28;20045;-86
2022/10/06 10:23:35;;;;;;;2.35;0.50;;;;;;;;;;4932672;28;19956;-85
2022/10/06 10:26:20;;;;;;;4.55;0.70;;;;;;;;;;4959221;28;20537;-85
2022/10/06 10:29:13;;;;;;;2.08;0.60;;;;;;;;;;4953425;28;20058;-83
2022/10/06 10:31:50;;;;;;;2.65;0.70;;;;;;;;;;4939004;28;20035;-83
2022/10/06 10:34:22;;;;;;;3.45;0.93;;;;;;;;;;4939226;28;20119;-83
2022/10/06 10:36:58;;;;;;;3.00;0.50;;;;;;;;;;4951710;28;20039;-82
2022/10/06 10:39:34;;;;;;;1.83;0.40;;;;;;;;;;4910583;28;20051;-84
2022/10/06 10:42:04;;;;;;;1.95;0.65;;;;;;;;;;4948522;28;20122;-84
2022/10/06 10:44:40;;;;;;;3.20;0.50;;;;;;;;;;4950311;28;20618;-85
2022/10/06 10:47:26;;;;;;;2.50;0.60;;;;;;;;;;4919427;28;20035;-84
2022/10/06 10:50:09;;;;;;;1.58;0.40;;;;;;;;;;4921451;28;20054;-84
2022/10/06 10:52:40;;;;;;;2.67;0.50;;;;;;;;;;4951471;28;20593;-84
2022/10/06 10:55:25;;;;;;;2.45;0.55;;;;;;;;;;4941973;28;20534;-84
2022/10/06 10:58:02;;;;;;;1.98;0.55;;;;;;;;;;4951982;28;20055;-83
2022/10/06 11:00:29;;;;;;;3.40;0.73;;;;;;;;;;4932800;28;20070;-84
2022/10/06 11:02:57;;;;;;;2.67;0.65;;;;;;;;;;4934633;28;20043;-85
2022/10/06 11:05:29;;;;;;;;;;;;;;;;;;4942033;28;20039;-85
2022/10/06 11:08:15;;;;;;;2.72;0.70;;;;;;;;;;4937388;28;20701;-86
2022/10/06 11:10:47;;;;;;;3.42;1.00;;;;;;;;;;4968862;28;20038;-84
2022/10/06 11:13:13;;;;;;;3.42;0.40;;;;;;;;;;4955939;28;20421;-83
2022/10/06 11:15:56;;;;;;;2.50;0.50;;;;;;;;;;4976826;28;20034;-86
2022/10/06 11:18:59;;;;;;;2.30;0.70;;;;;;;;;;4972810;28;20054;-83
2022/10/06 11:21:39;;;;;;;2.40;0.60;;;;;;;;;;4956035;28;20110;-88
2022/10/06 11:24:30;;;;;;;4.00;0.60;;;;;;;;;;4947638;28;20045;-85
2022/10/06 11:27:10;;;;;;;2.90;0.52;;;;;;;;;;4969658;28;20055;-84
2022/10/06 11:29:50;;;;;;;3.28;0.55;;;;;;;;;;4959055;28;20047;-87
2022/10/06 11:32:29;;;;;;;2.35;0.38;;;;;;;;;;4988031;28;20596;-85
2022/10/06 11:34:55;;;;;;;2.08;0.70;;;;;;;;;;4973252;28;20031;-84
2022/10/06 11:37:39;;;;;;;2.88;0.60;;;;;;;;;;4955240;28;20043;-84
2022/10/06 11:40:26;;;;;;;1.88;0.47;;;;;;;;;;4982407;28;20575;-85
2022/10/06 11:43:01;;;;;;;2.55;0.55;;;;;;;;;;4989794;28;20038;-85
2022/10/06 11:45:40;;;;;;;3.90;0.50;;;;;;;;;;4988287;28;20034;-85
2022/10/06 11:48:23;;;;;;;3.22;0.80;;;;;;;;;;4967254;28;20479;-84
2022/10/06 11:50:54;;;;;;;3.13;0.55;;;;;;;;;;4949856;28;20039;-86
2022/10/06 11:53:33;;;;;;;2.20;0.60;;;;;;;;;;4950619;28;20042;-86
2022/10/06 11:56:16;;;;;;;2.95;0.40;;;;;;;;;;4958269;28;20461;-85
2022/10/06 11:58:51;;;;;;;3.00;0.85;;;;;;;;;;4976757;28;20035;-86
2022/10/06 12:01:46;;;;;;;2.10;0.52;;;;;;;;;;4977142;28;20113;-85
2022/10/06 12:04:17;;;;;;;2.55;0.47;;;;;;;;;;4963243;28;20494;-84
2022/10/06 12:06:43;;;;;;;2.35;0.50;;;;;;;;;;4975094;28;20464;-82
2022/10/06 12:09:24;;;;;;;4.07;0.43;;;;;;;;;;4992866;28;20398;-84
2022/10/06 12:12:17;;;;;;;4.03;0.60;;;;;;;;;;4970995;28;20090;-85
2022/10/06 12:15:01;;;;;;;1.85;0.40;;;;;;;;;;4947756;28;20035;-83
2022/10/06 12:17:35;;;;;;;2.90;0.40;;;;;;;;;;4954934;28;20363;-83
2022/10/06 12:20:26;;;;;;;3.75;0.73;;;;;;;;;;4950229;28;20779;-83
2022/10/06 12:22:56;;;;;;;2.55;0.60;;;;;;;;;;4993670;28;20042;-86
2022/10/06 12:25:34;;;;;;;2.67;0.65;;;;;;;;;;4960430;28;20034;-84
2022/10/06 12:28:32;;;;;;;2.03;0.55;;;;;;;;;;4983809;28;20431;-85
2022/10/06 12:31:22;;;;;;;2.47;0.68;;;;;;;;;;4968105;28;20482;-83
2022/10/06 12:33:48;;;;;;;2.92;0.60;;;;;;;;;;4959136;28;20077;-83
2022/10/06 12:36:25;;;;;;;3.08;0.60;;;;;;;;;;4956599;28;20081;-84
2022/10/06 12:39:06;;;;;;;1.67;0.45;;;;;;;;;;4956346;28;20039;-85
2022/10/06 12:41:55;;;;;;;1.63;0.40;;;;;;;;;;4956288;28;20039;-84
2022/10/06 12:44:48;;;;;;;2.17;0.70;;;;;;;;;;4968325;28;20046;-85
2022/10/06 12:47:21;;;;;;;2.90;0.60;;;;;;;;;;4986546;28;20035;-85
2022/10/06 12:49:57;;;;;;;2.53;0.60;;;;;;;;;;4943805;28;20120;-85
2022/10/06 12:52:53;;;;;;;4.55;0.70;;;;;;;;;;4943348;28;20165;-84
2022/10/06 12:55:59;;;;;;;2.80;0.50;;;;;;;;;;4959766;28;20040;-85
2022/10/06 12:58:31;;;;;;;1.88;0.50;;;;;;;;;;4946101;28;20510;-84
2022/10/06 13:01:04;;;;;;;3.30;0.60;;;;;;;;;;4986767;28;20039;-85
2022/10/06 13:03:30;;;;;;;3.30;0.50;;;;;;;;;;4970555;28;20042;-85
2022/10/06 13:06:02;;;;;;;2.85;0.60;;;;;;;;;;4966178;28;20072;-86
2022/10/06 13:08:32;;;;;;;5.80;0.82;;;;;;;;;;4985061;28;20500;-86
2022/10/06 13:11:28;;;;;;;1.70;0.57;;;;;;;;;;4966064;28;20089;-87
2022/10/06 13:14:06;;;;;;;3.53;0.50;;;;;;;;;;4955119;28;20144;-86
2022/10/06 13:16:35;;;;;;;1.45;0.30;;;;;;;;;;4972191;28;20038;-83
2022/10/06 13:19:00;;;;;;;2.10;0.68;;;;;;;;;;4963123;28;20398;-82
2022/10/06 13:21:28;;;;;;;2.42;0.50;;;;;;;;;;4953760;28;20035;-82
2022/10/06 13:23:54;;;;;;;2.15;0.50;;;;;;;;;;4976375;28;20097;-83
2022/10/06 13:26:20;;;;;;;3.80;0.65;;;;;;;;;;4987925;28;20035;-83
2022/10/06 13:28:48;;;;;;;2.37;0.50;;;;;;;;;;4973647;28;20038;-84
2022/10/06 13:31:13;;;;;;;;;;;;;;;;;;4966060;28;20312;-83
2022/10/06 13:33:40;;;;;;;3.70;0.50;;;;;;;;;;4991350;28;19984;-83
2022/10/06 13:36:06;;;;;;;2.37;0.43;;;;;;;;;;4975770;28;20304;-83
2022/10/06 13:38:34;;;;;;;2.80;0.50;;;;;;;;;;4958248;28;20765;-85
2022/10/06 13:41:04;;;;;;;2.72;0.60;;;;;;;;;;4974864;28;20088;-84
2022/10/06 13:43:29;;;;;;;0.85;0.40;;;;;;;;;;4974011;28;20097;-84
2022/10/06 13:45:56;;;;;;;1.58;0.43;;;;;;;;;;4969233;28;20763;-84
2022/10/06 13:48:24;;;;;;;4.53;0.90;;;;;;;;;;4959422;28;20042;-84
2022/10/06 13:50:52;;;;;;;2.28;0.47;;;;;;;;;;4974627;28;20041;-85
2022/10/06 13:53:27;;;;;;;2.65;0.50;;;;;;;;;;4966910;28;20065;-83
2022/10/06 13:55:52;;;;;;;1.80;0.55;;;;;;;;;;4971599;28;20038;-84
2022/10/06 13:58:21;;;;;;;3.53;0.80;;;;;;;;;;4958297;28;20105;-83
2022/10/06 14:01:02;;;;;;;3.00;0.63;;;;;;;;;;4973939;28;20083;-83
2022/10/06 14:03:34;;;;;;;1.98;0.45;;;;;;;;;;4973721;28;20049;-84
2022/10/06 14:06:26;;;;;;;1.52;0.38;;;;;;;;;;4955851;28;20085;-84
2022/10/06 14:08:54;;;;;;;2.58;0.40;;;;;;;;;;4948620;28;20062;-83
2022/10/06 14:11:25;;;;;;;1.80;0.50;;;;;;;;;;4953596;28;20046;-84
2022/10/06 14:14:01;;;;;;;1.13;0.30;;;;;;;;;;4946537;28;20042;-85
2022/10/06 14:16:27;;;;;;;2.95;0.52;;;;;;;;;;4962245;28;20086;-87
2022/10/06 14:18:59;;;;;;;2.53;0.52;;;;;;;;;;4943443;28;20050;-86
2022/10/06 14:21:30;;;;;;;3.10;0.57;;;;;;;;;;4940381;28;20042;-88
2022/10/06 14:23:57;;;;;;;1.52;0.40;;;;;;;;;;4956819;28;20153;-91
2022/10/06 14:26:30;;;;;;;3.20;0.50;;;;;;;;;;4947107;28;20031;-88
2022/10/06 14:28:56;;;;;;;3.30;0.60;;;;;;;;;;4952794;28;20721;-85
2022/10/06 14:31:23;;;;;;;2.25;0.55;;;;;;;;;;4945453;28;20031;-84
2022/10/06 14:33:53;;;;;;;;;;;;;;;;;;4956313;28;20027;-84
2022/10/06 14:36:21;;;;;;;2.00;0.35;;;;;;;;;;4957617;28;19964;-84
2022/10/06 14:38:47;;;;;;;0.82;0.28;;;;;;;;;;4957801;28;20039;-83
2022/10/06 14:41:14;;;;;;;1.30;0.40;;;;;;;;;;4950975;28;20501;-84
2022/10/06 14:43:40;;;;;;;2.67;0.50;;;;;;;;;;4983070;28;20041;-83
2022/10/06 14:46:10;;;;;;;2.95;0.50;;;;;;;;;;4973891;28;20105;-84
2022/10/06 14:48:35;;;;;;;2.75;0.50;;;;;;;;;;4982078;28;20176;-84
2022/10/06 14:51:02;;;;;;;2.65;0.60;;;;;;;;;;4971814;28;20608;-84
2022/10/06 14:53:28;;;;;;;2.80;0.50;;;;;;;;;;4964753;28;20042;-84
2022/10/06 14:55:53;;;;;;;2.53;0.50;;;;;;;;;;4975968;28;20403;-84
2022/10/06 14:58:18;;;;;;;3.55;0.68;;;;;;;;;;4963075;28;20486;-84
2022/10/06 15:00:44;;;;;;;3.28;0.70;;;;;;;;;;4971243;28;20098;-84
2022/10/06 15:03:09;;;;;;;2.88;0.40;;;;;;;;;;4975999;28;20039;-84
2022/10/06 15:08:08;;;;;;;2.03;0.50;;;;;;;;;;4964148;28;20042;-85
2022/10/06 15:08:20;;;;;;;1.73;0.40;;;;;;;;;;4975280;28;20358;-83
2022/10/06 15:10:50;;;;;;;2.35;0.50;;;;;;;;;;4965803;28;20031;-84
2022/10/06 15:13:15;;;;;;;3.20;0.52;;;;;;;;;;4981370;28;20034;-84
2022/10/06 15:15:41;;;;;;;3.45;0.82;;;;;;;;;;4978164;28;20065;-83